sensor_id;sensor_type;location;lat;lon;timestamp;pressure;altitude;pressure_sealevel;temperature;humidity
6096;BME280;25081;42.698;23.298;2024-02-14T00:01:18;95006.93;;;5.52;87.40
6096;BME280;25081;42.698;23.298;2024-02-14T00:03:27;95018.66;;;5.42;87.77
6096;BME280;25081;42.698;23.298;2024-02-14T00:05:36;95012.78;;;5.47;87.56
6096;BME280;25081;42.698;23.298;2024-02-14T00:07:45;95020.06;;;5.56;86.96
6096;BME280;25081;42.698;23.298;2024-02-14T00:09:53;95023.05;;;5.46;87.11
6096;BME280;25081;42.698;23.298;2024-02-14T00:12:02;95023.44;;;5.43;87.57
6096;BME280;25081;42.698;23.298;2024-02-14T00:14:11;95027.97;;;5.38;87.75
6096;BME280;25081;42.698;23.298;2024-02-14T00:16:20;95027.06;;;5.53;87.57
6096;BME280;25081;42.698;23.298;2024-02-14T00:18:29;95024.98;;;5.48;87.04
6096;BME280;25081;42.698;23.298;2024-02-14T00:20:37;95029.48;;;5.37;87.90
6096;BME280;25081;42.698;23.298;2024-02-14T00:22:46;95029.14;;;5.46;87.77
6096;BME280;25081;42.698;23.298;2024-02-14T00:24:55;95031.03;;;5.53;87.61
6096;BME280;25081;42.698;23.298;2024-02-14T00:27:05;95030.22;;;5.52;86.95
6096;BME280;25081;42.698;23.298;2024-02-14T00:29:14;95041.94;;;5.43;87.49
6096;BME280;25081;42.698;23.298;2024-02-14T00:31:23;95030.92;;;5.50;87.11
6096;BME280;25081;42.698;23.298;2024-02-14T00:33:31;95044.25;;;5.53;86.87
6096;BME280;25081;42.698;23.298;2024-02-14T00:35:40;95033.31;;;5.45;86.73
6096;BME280;25081;42.698;23.298;2024-02-14T00:37:49;95047.28;;;5.39;87.28
6096;BME280;25081;42.698;23.298;2024-02-14T00:39:58;95036.27;;;5.46;87.00
6096;BME280;25081;42.698;23.298;2024-02-14T00:42:07;95042.12;;;5.52;86.65
6096;BME280;25081;42.698;23.298;2024-02-14T00:44:16;95039.11;;;5.44;87.12
6096;BME280;25081;42.698;23.298;2024-02-14T00:46:24;95037.02;;;5.51;86.70
6096;BME280;25081;42.698;23.298;2024-02-14T00:48:33;95036.02;;;5.52;87.11
6096;BME280;25081;42.698;23.298;2024-02-14T00:50:42;95039.75;;;5.64;86.61
6096;BME280;25081;42.698;23.298;2024-02-14T00:52:51;95041.63;;;5.59;86.59
6096;BME280;25081;42.698;23.298;2024-02-14T00:55:00;95042.03;;;5.56;86.67
6096;BME280;25081;42.698;23.298;2024-02-14T00:57:08;95034.94;;;5.46;87.00
6096;BME280;25081;42.698;23.298;2024-02-14T00:59:17;95039.89;;;5.56;86.90
6096;BME280;25081;42.698;23.298;2024-02-14T01:01:26;95037.25;;;5.56;86.75
6096;BME280;25081;42.698;23.298;2024-02-14T01:03:35;95042.39;;;5.64;86.38
6096;BME280;25081;42.698;23.298;2024-02-14T01:05:44;95034.09;;;6.19;92.09
6096;BME280;25081;42.698;23.298;2024-02-14T01:07:52;95041.62;;;6.39;87.02
6096;BME280;25081;42.698;23.298;2024-02-14T01:10:02;95040.92;;;6.00;85.62
6096;BME280;25081;42.698;23.298;2024-02-14T01:12:10;95038.19;;;6.04;84.77
6096;BME280;25081;42.698;23.298;2024-02-14T01:14:19;95039.06;;;5.83;85.19
6096;BME280;25081;42.698;23.298;2024-02-14T01:16:28;95042.50;;;5.66;85.31
6096;BME280;25081;42.698;23.298;2024-02-14T01:18:37;95041.66;;;5.49;85.97
6096;BME280;25081;42.698;23.298;2024-02-14T01:20:46;95045.99;;;5.56;86.13
6096;BME280;25081;42.698;23.298;2024-02-14T01:22:54;95039.67;;;5.51;86.34
6096;BME280;25081;42.698;23.298;2024-02-14T01:25:04;95039.19;;;5.40;86.38
6096;BME280;25081;42.698;23.298;2024-02-14T01:27:13;95043.46;;;5.41;86.47
6096;BME280;25081;42.698;23.298;2024-02-14T01:29:22;95045.77;;;5.51;86.44
6096;BME280;25081;42.698;23.298;2024-02-14T01:31:32;95018.29;;;5.35;86.45
6096;BME280;25081;42.698;23.298;2024-02-14T01:33:40;95040.00;;;5.58;86.29
6096;BME280;25081;42.698;23.298;2024-02-14T01:35:49;95044.28;;;5.59;85.71
6096;BME280;25081;42.698;23.298;2024-02-14T01:37:57;95042.34;;;5.57;85.65
6096;BME280;25081;42.698;23.298;2024-02-14T01:40:08;95036.83;;;5.52;86.03
6096;BME280;25081;42.698;23.298;2024-02-14T01:42:17;95035.92;;;5.56;85.81
6096;BME280;25081;42.698;23.298;2024-02-14T01:44:26;95030.84;;;5.54;85.95
6096;BME280;25081;42.698;23.298;2024-02-14T01:46:35;95034.94;;;5.46;85.79
6096;BME280;25081;42.698;23.298;2024-02-14T01:48:44;95032.08;;;5.41;86.23
6096;BME280;25081;42.698;23.298;2024-02-14T01:50:52;95025.58;;;5.43;86.23
6096;BME280;25081;42.698;23.298;2024-02-14T01:53:01;95036.03;;;5.41;86.17
6096;BME280;25081;42.698;23.298;2024-02-14T01:55:10;95037.08;;;5.46;85.96
6096;BME280;25081;42.698;23.298;2024-02-14T01:57:19;95032.69;;;5.43;86.02
6096;BME280;25081;42.698;23.298;2024-02-14T01:59:28;95039.11;;;5.44;86.25
6096;BME280;25081;42.698;23.298;2024-02-14T02:01:36;95044.84;;;5.37;86.09
6096;BME280;25081;42.698;23.298;2024-02-14T02:03:45;95039.94;;;5.34;86.53
6096;BME280;25081;42.698;23.298;2024-02-14T02:05:54;95040.76;;;5.35;86.77
6096;BME280;25081;42.698;23.298;2024-02-14T02:08:03;95041.13;;;5.42;86.39
6096;BME280;25081;42.698;23.298;2024-02-14T02:10:12;95040.93;;;5.44;86.63
6096;BME280;25081;42.698;23.298;2024-02-14T02:12:23;95048.78;;;5.48;86.50
6096;BME280;25081;42.698;23.298;2024-02-14T02:14:33;95046.78;;;5.39;86.96
6096;BME280;25081;42.698;23.298;2024-02-14T02:16:42;95048.86;;;5.44;86.37
6096;BME280;25081;42.698;23.298;2024-02-14T02:18:50;95052.23;;;5.31;86.97
6096;BME280;25081;42.698;23.298;2024-02-14T02:20:59;95049.30;;;5.37;86.72
6096;BME280;25081;42.698;23.298;2024-02-14T02:23:08;95048.24;;;5.42;86.75
6096;BME280;25081;42.698;23.298;2024-02-14T02:25:16;95049.56;;;5.42;86.75
6096;BME280;25081;42.698;23.298;2024-02-14T02:27:25;95054.27;;;5.46;86.38
6096;BME280;25081;42.698;23.298;2024-02-14T02:29:35;95048.60;;;5.39;86.06
6096;BME280;25081;42.698;23.298;2024-02-14T02:31:43;95050.58;;;5.41;86.11
6096;BME280;25081;42.698;23.298;2024-02-14T02:33:52;95058.31;;;5.42;85.59
6096;BME280;25081;42.698;23.298;2024-02-14T02:36:01;95056.03;;;5.39;85.65
6096;BME280;25081;42.698;23.298;2024-02-14T02:38:09;95054.17;;;5.33;85.62
6096;BME280;25081;42.698;23.298;2024-02-14T02:40:18;95055.16;;;5.43;85.16
6096;BME280;25081;42.698;23.298;2024-02-14T02:42:27;95059.23;;;5.45;85.17
6096;BME280;25081;42.698;23.298;2024-02-14T02:44:37;95063.52;;;5.46;84.78
6096;BME280;25081;42.698;23.298;2024-02-14T02:46:45;95068.43;;;5.39;85.01
6096;BME280;25081;42.698;23.298;2024-02-14T02:48:53;95071.23;;;5.31;84.99
6096;BME280;25081;42.698;23.298;2024-02-14T02:51:02;95078.89;;;5.36;85.39
6096;BME280;25081;42.698;23.298;2024-02-14T02:53:11;95076.95;;;5.34;85.02
6096;BME280;25081;42.698;23.298;2024-02-14T02:55:20;95085.61;;;5.39;85.07
6096;BME280;25081;42.698;23.298;2024-02-14T02:57:29;95084.87;;;5.34;85.63
6096;BME280;25081;42.698;23.298;2024-02-14T02:59:38;95084.59;;;5.40;84.96
6096;BME280;25081;42.698;23.298;2024-02-14T03:01:46;95085.50;;;5.36;84.92
6096;BME280;25081;42.698;23.298;2024-02-14T03:03:55;95092.93;;;5.26;85.03
6096;BME280;25081;42.698;23.298;2024-02-14T03:06:05;95091.91;;;5.38;84.99
6096;BME280;25081;42.698;23.298;2024-02-14T03:08:14;95094.84;;;5.50;84.43
6096;BME280;25081;42.698;23.298;2024-02-14T03:10:23;95095.25;;;5.36;84.75
6096;BME280;25081;42.698;23.298;2024-02-14T03:12:32;95091.20;;;5.40;84.44
6096;BME280;25081;42.698;23.298;2024-02-14T03:14:41;95092.11;;;5.36;84.77
6096;BME280;25081;42.698;23.298;2024-02-14T03:16:49;95099.64;;;5.39;84.67
6096;BME280;25081;42.698;23.298;2024-02-14T03:18:58;95093.81;;;5.33;84.84
6096;BME280;25081;42.698;23.298;2024-02-14T03:21:07;95095.38;;;5.28;84.79
6096;BME280;25081;42.698;23.298;2024-02-14T03:23:16;95105.83;;;5.25;84.88
6096;BME280;25081;42.698;23.298;2024-02-14T03:25:25;95117.34;;;5.17;85.20
6096;BME280;25081;42.698;23.298;2024-02-14T03:27:34;95109.09;;;5.27;85.10
6096;BME280;25081;42.698;23.298;2024-02-14T03:29:42;95112.87;;;5.29;84.57
6096;BME280;25081;42.698;23.298;2024-02-14T03:31:51;95122.43;;;5.30;84.70
6096;BME280;25081;42.698;23.298;2024-02-14T03:34:00;95124.45;;;5.28;84.38
6096;BME280;25081;42.698;23.298;2024-02-14T03:36:09;95120.88;;;5.25;84.68
6096;BME280;25081;42.698;23.298;2024-02-14T03:38:26;95129.23;;;5.39;84.15
6096;BME280;25081;42.698;23.298;2024-02-14T03:40:35;95130.05;;;5.39;83.77
6096;BME280;25081;42.698;23.298;2024-02-14T03:42:43;95128.72;;;5.39;83.87
6096;BME280;25081;42.698;23.298;2024-02-14T03:44:52;95130.51;;;5.32;84.03
6096;BME280;25081;42.698;23.298;2024-02-14T03:47:01;95139.61;;;5.30;84.26
6096;BME280;25081;42.698;23.298;2024-02-14T03:49:10;95139.48;;;5.27;84.36
6096;BME280;25081;42.698;23.298;2024-02-14T03:51:19;95141.75;;;5.20;84.57
6096;BME280;25081;42.698;23.298;2024-02-14T03:53:28;95149.01;;;5.32;83.91
6096;BME280;25081;42.698;23.298;2024-02-14T03:55:37;95146.87;;;5.32;83.47
6096;BME280;25081;42.698;23.298;2024-02-14T03:57:45;95146.98;;;5.34;83.53
6096;BME280;25081;42.698;23.298;2024-02-14T03:59:54;95148.19;;;5.42;83.41
6096;BME280;25081;42.698;23.298;2024-02-14T04:02:04;95141.89;;;5.33;83.69
6096;BME280;25081;42.698;23.298;2024-02-14T04:04:13;95138.24;;;5.34;83.32
6096;BME280;25081;42.698;23.298;2024-02-14T04:06:21;95148.50;;;5.33;83.58
6096;BME280;25081;42.698;23.298;2024-02-14T04:08:30;95142.63;;;5.16;84.16
6096;BME280;25081;42.698;23.298;2024-02-14T04:10:39;95147.80;;;5.24;84.03
6096;BME280;25081;42.698;23.298;2024-02-14T04:12:48;95147.30;;;5.14;84.33
6096;BME280;25081;42.698;23.298;2024-02-14T04:14:56;95152.97;;;5.22;84.58
6096;BME280;25081;42.698;23.298;2024-02-14T04:17:06;95134.01;;;5.07;84.31
6096;BME280;25081;42.698;23.298;2024-02-14T04:19:15;95156.13;;;5.21;84.21
6096;BME280;25081;42.698;23.298;2024-02-14T04:21:23;95163.34;;;5.23;84.02
6096;BME280;25081;42.698;23.298;2024-02-14T04:23:32;95155.03;;;5.26;84.03
6096;BME280;25081;42.698;23.298;2024-02-14T04:25:41;95167.82;;;5.33;83.88
6096;BME280;25081;42.698;23.298;2024-02-14T04:27:50;95169.56;;;5.15;84.44
6096;BME280;25081;42.698;23.298;2024-02-14T04:30:00;95159.11;;;5.07;84.33
6096;BME280;25081;42.698;23.298;2024-02-14T04:32:08;95164.58;;;5.06;84.33
6096;BME280;25081;42.698;23.298;2024-02-14T04:34:17;95163.00;;;5.11;83.96
6096;BME280;25081;42.698;23.298;2024-02-14T04:36:26;95169.30;;;5.10;84.32
6096;BME280;25081;42.698;23.298;2024-02-14T04:38:34;95167.45;;;5.00;84.31
6096;BME280;25081;42.698;23.298;2024-02-14T04:40:43;95171.61;;;4.99;84.82
6096;BME280;25081;42.698;23.298;2024-02-14T04:42:52;95166.79;;;5.02;84.71
6096;BME280;25081;42.698;23.298;2024-02-14T04:45:01;95177.36;;;5.02;84.71
6096;BME280;25081;42.698;23.298;2024-02-14T04:47:09;95178.38;;;5.12;84.64
6096;BME280;25081;42.698;23.298;2024-02-14T04:49:18;95179.20;;;5.12;84.28
6096;BME280;25081;42.698;23.298;2024-02-14T04:51:27;95179.42;;;5.07;84.71
6096;BME280;25081;42.698;23.298;2024-02-14T04:53:36;95181.02;;;5.12;84.88
6096;BME280;25081;42.698;23.298;2024-02-14T04:55:44;95196.63;;;5.28;84.19
6096;BME280;25081;42.698;23.298;2024-02-14T04:57:53;95184.48;;;5.12;84.01
6096;BME280;25081;42.698;23.298;2024-02-14T05:00:02;95194.79;;;5.18;84.03
6096;BME280;25081;42.698;23.298;2024-02-14T05:02:11;95192.83;;;5.05;84.08
6096;BME280;25081;42.698;23.298;2024-02-14T05:04:20;95201.66;;;5.12;84.31
6096;BME280;25081;42.698;23.298;2024-02-14T05:06:29;95207.76;;;5.13;84.32
6096;BME280;25081;42.698;23.298;2024-02-14T05:08:37;95201.00;;;5.10;84.22
6096;BME280;25081;42.698;23.298;2024-02-14T05:10:46;95210.52;;;5.15;84.23
6096;BME280;25081;42.698;23.298;2024-02-14T05:12:55;95205.78;;;5.11;84.37
6096;BME280;25081;42.698;23.298;2024-02-14T05:15:04;95207.16;;;5.07;84.56
6096;BME280;25081;42.698;23.298;2024-02-14T05:17:13;95216.41;;;5.07;84.79
6096;BME280;25081;42.698;23.298;2024-02-14T05:19:22;95214.21;;;5.10;84.39
6096;BME280;25081;42.698;23.298;2024-02-14T05:21:31;95212.02;;;5.03;84.42
6096;BME280;25081;42.698;23.298;2024-02-14T05:23:39;95223.98;;;5.21;84.05
6096;BME280;25081;42.698;23.298;2024-02-14T05:25:48;95224.06;;;5.27;83.64
6096;BME280;25081;42.698;23.298;2024-02-14T05:27:57;95228.83;;;5.17;83.88
6096;BME280;25081;42.698;23.298;2024-02-14T05:30:07;95230.84;;;5.15;84.07
6096;BME280;25081;42.698;23.298;2024-02-14T05:32:16;95236.02;;;5.23;84.06
6096;BME280;25081;42.698;23.298;2024-02-14T05:34:25;95232.91;;;5.20;83.93
6096;BME280;25081;42.698;23.298;2024-02-14T05:36:34;95240.72;;;5.17;84.11
6096;BME280;25081;42.698;23.298;2024-02-14T05:38:43;95231.44;;;5.21;83.41
6096;BME280;25081;42.698;23.298;2024-02-14T05:40:51;95242.16;;;5.20;83.76
6096;BME280;25081;42.698;23.298;2024-02-14T05:43:00;95244.22;;;5.03;84.02
6096;BME280;25081;42.698;23.298;2024-02-14T05:45:09;95227.37;;;4.89;84.39
6096;BME280;25081;42.698;23.298;2024-02-14T05:47:18;95254.79;;;5.03;84.73
6096;BME280;25081;42.698;23.298;2024-02-14T05:49:27;95255.35;;;5.09;84.29
6096;BME280;25081;42.698;23.298;2024-02-14T05:51:36;95258.28;;;4.99;83.99
6096;BME280;25081;42.698;23.298;2024-02-14T05:53:44;95265.36;;;5.03;83.52
6096;BME280;25081;42.698;23.298;2024-02-14T05:55:53;95271.27;;;4.90;84.51
6096;BME280;25081;42.698;23.298;2024-02-14T05:58:02;95266.83;;;5.01;83.88
6096;BME280;25081;42.698;23.298;2024-02-14T06:00:12;95274.47;;;4.85;83.92
6096;BME280;25081;42.698;23.298;2024-02-14T06:02:20;95274.00;;;4.97;83.72
6096;BME280;25081;42.698;23.298;2024-02-14T06:04:29;95278.69;;;4.91;83.86
6096;BME280;25081;42.698;23.298;2024-02-14T06:06:38;95258.52;;;4.79;83.55
6096;BME280;25081;42.698;23.298;2024-02-14T06:08:46;95281.89;;;4.86;83.87
6096;BME280;25081;42.698;23.298;2024-02-14T06:10:55;95288.16;;;5.00;83.15
6096;BME280;25081;42.698;23.298;2024-02-14T06:13:04;95283.13;;;4.94;83.02
6096;BME280;25081;42.698;23.298;2024-02-14T06:15:13;95278.43;;;4.85;82.80
6096;BME280;25081;42.698;23.298;2024-02-14T06:17:21;95294.19;;;4.94;82.64
6096;BME280;25081;42.698;23.298;2024-02-14T06:19:30;95288.94;;;4.89;82.46
6096;BME280;25081;42.698;23.298;2024-02-14T06:21:39;95297.49;;;4.92;82.54
6096;BME280;25081;42.698;23.298;2024-02-14T06:23:47;95292.39;;;4.90;82.48
6096;BME280;25081;42.698;23.298;2024-02-14T06:25:56;95301.84;;;5.03;82.31
6096;BME280;25081;42.698;23.298;2024-02-14T06:28:05;95304.01;;;5.00;82.12
6096;BME280;25081;42.698;23.298;2024-02-14T06:30:14;95309.52;;;5.09;82.10
6096;BME280;25081;42.698;23.298;2024-02-14T06:32:23;95309.39;;;5.06;81.73
6096;BME280;25081;42.698;23.298;2024-02-14T06:34:32;95310.78;;;5.28;80.96
6096;BME280;25081;42.698;23.298;2024-02-14T06:36:41;95318.20;;;5.28;80.92
6096;BME280;25081;42.698;23.298;2024-02-14T06:38:49;95320.03;;;5.28;80.90
6096;BME280;25081;42.698;23.298;2024-02-14T06:40:58;95312.84;;;5.07;80.76
6096;BME280;25081;42.698;23.298;2024-02-14T06:43:07;95313.48;;;5.09;80.81
6096;BME280;25081;42.698;23.298;2024-02-14T06:45:15;95318.48;;;5.33;80.67
6096;BME280;25081;42.698;23.298;2024-02-14T06:47:24;95325.00;;;5.41;80.48
6096;BME280;25081;42.698;23.298;2024-02-14T06:49:33;95322.48;;;5.29;80.29
6096;BME280;25081;42.698;23.298;2024-02-14T06:51:42;95327.13;;;5.42;79.71
6096;BME280;25081;42.698;23.298;2024-02-14T06:53:51;95327.39;;;5.22;79.73
6096;BME280;25081;42.698;23.298;2024-02-14T06:55:59;95329.22;;;5.21;79.78
6096;BME280;25081;42.698;23.298;2024-02-14T06:58:08;95328.77;;;5.28;79.91
6096;BME280;25081;42.698;23.298;2024-02-14T07:00:17;95330.28;;;5.27;79.58
6096;BME280;25081;42.698;23.298;2024-02-14T07:02:26;95330.81;;;5.37;79.14
6096;BME280;25081;42.698;23.298;2024-02-14T07:04:35;95334.20;;;5.56;78.54
6096;BME280;25081;42.698;23.298;2024-02-14T07:06:44;95335.44;;;5.50;78.53
6096;BME280;25081;42.698;23.298;2024-02-14T07:08:53;95351.69;;;5.46;78.34
6096;BME280;25081;42.698;23.298;2024-02-14T07:11:02;95350.96;;;5.38;78.24
6096;BME280;25081;42.698;23.298;2024-02-14T07:13:10;95359.45;;;5.33;78.23
6096;BME280;25081;42.698;23.298;2024-02-14T07:15:19;95356.88;;;5.55;77.89
6096;BME280;25081;42.698;23.298;2024-02-14T07:17:28;95360.11;;;5.61;77.91
6096;BME280;25081;42.698;23.298;2024-02-14T07:19:36;95364.68;;;5.52;77.72
6096;BME280;25081;42.698;23.298;2024-02-14T07:21:45;95376.27;;;5.51;77.62
6096;BME280;25081;42.698;23.298;2024-02-14T07:23:54;95371.51;;;5.61;76.72
6096;BME280;25081;42.698;23.298;2024-02-14T07:26:03;95372.54;;;5.71;76.74
6096;BME280;25081;42.698;23.298;2024-02-14T07:28:11;95380.50;;;5.82;76.30
6096;BME280;25081;42.698;23.298;2024-02-14T07:30:20;95377.28;;;5.86;76.24
6096;BME280;25081;42.698;23.298;2024-02-14T07:32:29;95378.24;;;5.64;76.33
6096;BME280;25081;42.698;23.298;2024-02-14T07:34:40;95382.45;;;5.29;77.09
6096;BME280;25081;42.698;23.298;2024-02-14T07:36:48;95378.31;;;5.60;76.40
6096;BME280;25081;42.698;23.298;2024-02-14T07:38:57;95379.63;;;5.60;76.26
6096;BME280;25081;42.698;23.298;2024-02-14T07:41:06;95381.70;;;5.64;75.98
6096;BME280;25081;42.698;23.298;2024-02-14T07:43:14;95383.37;;;5.76;75.97
6096;BME280;25081;42.698;23.298;2024-02-14T07:45:23;95388.60;;;5.69;75.73
6096;BME280;25081;42.698;23.298;2024-02-14T07:47:32;95383.66;;;5.66;75.75
6096;BME280;25081;42.698;23.298;2024-02-14T07:49:41;95393.41;;;5.81;75.64
6096;BME280;25081;42.698;23.298;2024-02-14T07:51:49;95383.78;;;5.69;76.01
6096;BME280;25081;42.698;23.298;2024-02-14T07:53:58;95391.88;;;5.71;76.24
6096;BME280;25081;42.698;23.298;2024-02-14T07:56:07;95387.31;;;5.65;76.40
6096;BME280;25081;42.698;23.298;2024-02-14T07:58:16;95380.38;;;5.79;75.96
6096;BME280;25081;42.698;23.298;2024-02-14T08:00:25;95384.13;;;5.95;75.47
6096;BME280;25081;42.698;23.298;2024-02-14T08:02:33;95385.97;;;6.06;75.58
6096;BME280;25081;42.698;23.298;2024-02-14T08:04:42;95385.73;;;6.11;74.68
6096;BME280;25081;42.698;23.298;2024-02-14T08:06:51;95386.03;;;5.87;75.62
6096;BME280;25081;42.698;23.298;2024-02-14T08:08:59;95396.62;;;5.87;75.54
6096;BME280;25081;42.698;23.298;2024-02-14T08:11:08;95395.50;;;5.60;75.49
6096;BME280;25081;42.698;23.298;2024-02-14T08:13:17;95396.19;;;5.43;76.59
6096;BME280;25081;42.698;23.298;2024-02-14T08:15:26;95392.95;;;5.52;76.04
6096;BME280;25081;42.698;23.298;2024-02-14T08:17:35;95400.31;;;5.56;75.63
6096;BME280;25081;42.698;23.298;2024-02-14T08:19:43;95393.95;;;5.51;75.72
6096;BME280;25081;42.698;23.298;2024-02-14T08:21:52;95397.67;;;5.56;75.80
6096;BME280;25081;42.698;23.298;2024-02-14T08:24:01;95405.13;;;5.42;75.77
6096;BME280;25081;42.698;23.298;2024-02-14T08:26:09;95397.98;;;5.57;75.57
6096;BME280;25081;42.698;23.298;2024-02-14T08:28:18;95405.66;;;5.52;75.46
6096;BME280;25081;42.698;23.298;2024-02-14T08:30:27;95401.38;;;5.51;75.07
6096;BME280;25081;42.698;23.298;2024-02-14T08:32:36;95408.72;;;5.45;75.32
6096;BME280;25081;42.698;23.298;2024-02-14T08:34:45;95402.14;;;5.56;74.92
6096;BME280;25081;42.698;23.298;2024-02-14T08:36:54;95412.17;;;5.45;75.92
6096;BME280;25081;42.698;23.298;2024-02-14T08:39:02;95416.82;;;5.14;76.20
6096;BME280;25081;42.698;23.298;2024-02-14T08:41:11;95411.35;;;5.15;75.92
6096;BME280;25081;42.698;23.298;2024-02-14T08:43:20;95413.33;;;5.32;75.84
6096;BME280;25081;42.698;23.298;2024-02-14T08:45:28;95424.22;;;5.33;75.28
6096;BME280;25081;42.698;23.298;2024-02-14T08:47:37;95415.45;;;5.18;76.02
6096;BME280;25081;42.698;23.298;2024-02-14T08:49:46;95426.38;;;5.30;75.54
6096;BME280;25081;42.698;23.298;2024-02-14T08:51:54;95425.50;;;5.52;74.61
6096;BME280;25081;42.698;23.298;2024-02-14T08:54:03;95427.98;;;5.50;74.69
6096;BME280;25081;42.698;23.298;2024-02-14T08:56:12;95433.45;;;5.48;74.99
6096;BME280;25081;42.698;23.298;2024-02-14T08:58:21;95431.40;;;5.39;74.97
6096;BME280;25081;42.698;23.298;2024-02-14T09:00:30;95408.44;;;5.25;74.77
6096;BME280;25081;42.698;23.298;2024-02-14T09:02:38;95436.92;;;5.49;74.91
6096;BME280;25081;42.698;23.298;2024-02-14T09:04:47;95446.00;;;5.35;75.03
6096;BME280;25081;42.698;23.298;2024-02-14T09:06:55;95448.81;;;5.49;74.58
6096;BME280;25081;42.698;23.298;2024-02-14T09:09:04;95440.81;;;5.42;74.96
6096;BME280;25081;42.698;23.298;2024-02-14T09:11:13;95439.89;;;5.79;73.85
6096;BME280;25081;42.698;23.298;2024-02-14T09:13:22;95457.39;;;5.65;74.34
6096;BME280;25081;42.698;23.298;2024-02-14T09:15:30;95452.30;;;5.64;73.61
6096;BME280;25081;42.698;23.298;2024-02-14T09:17:39;95455.16;;;5.58;73.94
6096;BME280;25081;42.698;23.298;2024-02-14T09:19:48;95453.59;;;5.49;74.12
6096;BME280;25081;42.698;23.298;2024-02-14T09:21:56;95449.13;;;5.50;74.47
6096;BME280;25081;42.698;23.298;2024-02-14T09:24:06;95451.30;;;5.50;74.92
6096;BME280;25081;42.698;23.298;2024-02-14T09:26:15;95458.71;;;5.21;75.35
6096;BME280;25081;42.698;23.298;2024-02-14T09:28:24;95460.33;;;5.41;75.36
6096;BME280;25081;42.698;23.298;2024-02-14T09:30:33;95467.33;;;5.34;74.87
6096;BME280;25081;42.698;23.298;2024-02-14T09:32:42;95466.06;;;5.44;74.67
6096;BME280;25081;42.698;23.298;2024-02-14T09:34:51;95472.66;;;5.59;74.52
6096;BME280;25081;42.698;23.298;2024-02-14T09:37:00;95463.97;;;5.55;74.93
6096;BME280;25081;42.698;23.298;2024-02-14T09:39:09;95473.45;;;5.64;74.63
6096;BME280;25081;42.698;23.298;2024-02-14T09:41:19;95473.30;;;5.46;74.57
6096;BME280;25081;42.698;23.298;2024-02-14T09:43:28;95471.69;;;5.27;74.82
6096;BME280;25081;42.698;23.298;2024-02-14T09:45:35;95467.96;;;5.21;74.92
6096;BME280;25081;42.698;23.298;2024-02-14T09:47:44;95468.07;;;5.42;74.42
6096;BME280;25081;42.698;23.298;2024-02-14T09:49:53;95468.83;;;5.47;74.28
6096;BME280;25081;42.698;23.298;2024-02-14T09:52:02;95456.80;;;5.59;74.27
6096;BME280;25081;42.698;23.298;2024-02-14T09:54:11;95462.93;;;5.60;73.59
6096;BME280;25081;42.698;23.298;2024-02-14T09:56:20;95477.27;;;5.46;73.81
6096;BME280;25081;42.698;23.298;2024-02-14T09:58:28;95395.86;;;5.27;73.21
6096;BME280;25081;42.698;23.298;2024-02-14T10:00:37;95455.47;;;5.59;73.34
6096;BME280;25081;42.698;23.298;2024-02-14T10:02:46;95453.34;;;5.44;73.21
6096;BME280;25081;42.698;23.298;2024-02-14T10:04:55;95452.44;;;5.52;73.01
6096;BME280;25081;42.698;23.298;2024-02-14T10:07:04;95454.65;;;5.59;72.41
6096;BME280;25081;42.698;23.298;2024-02-14T10:09:17;95454.78;;;5.76;72.23
6096;BME280;25081;42.698;23.298;2024-02-14T10:11:22;95451.04;;;5.85;72.14
6096;BME280;25081;42.698;23.298;2024-02-14T10:13:30;95453.81;;;5.92;71.79
6096;BME280;25081;42.698;23.298;2024-02-14T10:15:39;95454.38;;;5.83;71.43
6096;BME280;25081;42.698;23.298;2024-02-14T10:17:48;95454.77;;;5.51;72.53
6096;BME280;25081;42.698;23.298;2024-02-14T10:19:58;95458.17;;;5.55;72.87
6096;BME280;25081;42.698;23.298;2024-02-14T10:22:06;95450.13;;;5.78;72.47
6096;BME280;25081;42.698;23.298;2024-02-14T10:24:15;95452.17;;;5.91;71.76
6096;BME280;25081;42.698;23.298;2024-02-14T10:26:24;95459.41;;;5.63;71.39
6096;BME280;25081;42.698;23.298;2024-02-14T10:28:33;95448.95;;;5.36;72.58
6096;BME280;25081;42.698;23.298;2024-02-14T10:30:44;95454.70;;;5.55;72.08
6096;BME280;25081;42.698;23.298;2024-02-14T10:32:50;95450.81;;;5.76;71.56
6096;BME280;25081;42.698;23.298;2024-02-14T10:34:59;95449.05;;;5.72;71.51
6096;BME280;25081;42.698;23.298;2024-02-14T10:37:08;95450.09;;;5.97;71.15
6096;BME280;25081;42.698;23.298;2024-02-14T10:39:16;95447.09;;;6.00;71.05
6096;BME280;25081;42.698;23.298;2024-02-14T10:41:25;95444.11;;;5.84;71.72
6096;BME280;25081;42.698;23.298;2024-02-14T10:43:34;95446.69;;;5.63;72.44
6096;BME280;25081;42.698;23.298;2024-02-14T10:45:42;95451.00;;;6.04;71.80
6096;BME280;25081;42.698;23.298;2024-02-14T10:47:51;95435.92;;;5.79;71.37
6096;BME280;25081;42.698;23.298;2024-02-14T10:50:01;95439.83;;;5.83;71.20
6096;BME280;25081;42.698;23.298;2024-02-14T10:52:09;95440.23;;;5.76;70.82
6096;BME280;25081;42.698;23.298;2024-02-14T10:54:18;95438.06;;;5.94;70.28
6096;BME280;25081;42.698;23.298;2024-02-14T10:56:27;95448.92;;;5.70;71.13
6096;BME280;25081;42.698;23.298;2024-02-14T10:58:35;95441.02;;;5.81;70.02
6096;BME280;25081;42.698;23.298;2024-02-14T11:00:44;95446.53;;;5.75;70.22
6096;BME280;25081;42.698;23.298;2024-02-14T11:02:53;95455.81;;;5.60;70.83
6096;BME280;25081;42.698;23.298;2024-02-14T11:05:02;95451.92;;;5.82;70.82
6096;BME280;25081;42.698;23.298;2024-02-14T11:07:11;95453.18;;;5.86;70.88
6096;BME280;25081;42.698;23.298;2024-02-14T11:09:20;95451.48;;;5.63;71.37
6096;BME280;25081;42.698;23.298;2024-02-14T11:11:30;95447.86;;;5.75;70.82
6096;BME280;25081;42.698;23.298;2024-02-14T11:13:40;95448.64;;;5.94;70.60
6096;BME280;25081;42.698;23.298;2024-02-14T11:15:51;95445.67;;;6.08;70.05
6096;BME280;25081;42.698;23.298;2024-02-14T11:18:03;95452.28;;;6.08;70.33
6096;BME280;25081;42.698;23.298;2024-02-14T11:20:15;95450.18;;;6.03;69.97
6096;BME280;25081;42.698;23.298;2024-02-14T11:22:24;95444.33;;;5.79;70.50
6096;BME280;25081;42.698;23.298;2024-02-14T11:24:33;95454.78;;;5.76;70.36
6096;BME280;25081;42.698;23.298;2024-02-14T11:26:46;95449.73;;;5.56;71.13
6096;BME280;25081;42.698;23.298;2024-02-14T11:29:01;95456.58;;;5.65;71.27
6096;BME280;25081;42.698;23.298;2024-02-14T11:31:10;95451.69;;;5.58;71.44